Time;durP1;ratioP1;P1;durP2;ratioP2;P2;SDS_P1;SDS_P2;PMS_P1;PMS_P2;Temp;Humidity;BMP_temperature;BMP_pressure;BME280_temperature;BME280_humidity;BME280_pressure;Samples;Min_cycle;Max_cycle;Signal;HPM_P1;HPM_P2
2023/12/30 00:00:13;;;;;;;8.63;5.60;;;;;;;;;;1032384;28;20042;-65
2023/12/30 00:00:47;;;;;;;9.82;5.53;;;;;;;;;;1031626;28;20062;-65
2023/12/30 00:01:38;;;;;;;13.27;6.15;;;;;;;;;;1033395;28;20482;-65
2023/12/30 00:02:08;;;;;;;10.73;6.07;;;;;;;;;;1031980;28;20785;-64
2023/12/30 00:02:39;;;;;;;10.45;5.70;;;;;;;;;;1032497;28;20042;-64
2023/12/30 00:03:09;;;;;;;10.93;5.50;;;;;;;;;;1033512;28;20033;-65
2023/12/30 00:03:40;;;;;;;9.10;5.30;;;;;;;;;;1030821;28;20050;-65
2023/12/30 00:04:11;;;;;;;14.10;7.18;;;;;;;;;;1033139;28;20049;-65
2023/12/30 00:04:41;;;;;;;11.48;6.22;;;;;;;;;;1031025;28;20069;-65
2023/12/30 00:05:12;;;;;;;11.18;6.03;;;;;;;;;;1031945;28;20637;-64
2023/12/30 00:05:43;;;;;;;12.25;6.40;;;;;;;;;;1031330;28;20049;-65
2023/12/30 00:06:15;;;;;;;11.88;6.63;;;;;;;;;;1032004;28;20065;-65
2023/12/30 00:06:46;;;;;;;13.48;5.95;;;;;;;;;;1032429;28;20060;-65
2023/12/30 00:07:16;;;;;;;12.27;6.22;;;;;;;;;;1032976;28;20688;-65
2023/12/30 00:07:47;;;;;;;11.50;5.80;;;;;;;;;;1031968;28;20807;-65
2023/12/30 00:08:17;;;;;;;15.35;5.95;;;;;;;;;;1032340;28;20038;-65
2023/12/30 00:08:48;;;;;;;13.50;6.22;;;;;;;;;;1031558;28;20060;-64
2023/12/30 00:09:18;;;;;;;10.55;5.65;;;;;;;;;;1031979;28;20630;-66
2023/12/30 00:09:49;;;;;;;14.45;6.43;;;;;;;;;;1031288;28;20493;-65
2023/12/30 00:10:19;;;;;;;10.23;5.40;;;;;;;;;;1032545;28;20057;-64
2023/12/30 00:10:50;;;;;;;11.60;5.95;;;;;;;;;;1031378;28;20065;-66
2023/12/30 00:11:21;;;;;;;12.57;5.72;;;;;;;;;;1032353;28;20050;-65
2023/12/30 00:11:53;;;;;;;10.90;5.75;;;;;;;;;;1031489;28;20441;-65
2023/12/30 00:12:24;;;;;;;11.27;5.80;;;;;;;;;;1031083;28;20054;-65
2023/12/30 00:12:54;;;;;;;11.15;6.15;;;;;;;;;;1030843;28;20061;-65
2023/12/30 00:13:25;;;;;;;10.77;6.15;;;;;;;;;;1032768;28;20049;-64
2023/12/30 00:13:55;;;;;;;12.18;6.85;;;;;;;;;;1030691;28;20061;-66
2023/12/30 00:14:26;;;;;;;11.68;5.85;;;;;;;;;;1033535;28;20058;-64
2023/12/30 00:14:56;;;;;;;12.65;6.22;;;;;;;;;;1031276;28;20108;-65
2023/12/30 00:15:27;;;;;;;12.68;6.72;;;;;;;;;;1032634;28;20062;-65
2023/12/30 00:15:57;;;;;;;11.88;6.43;;;;;;;;;;1032611;28;20049;-65
2023/12/30 00:16:28;;;;;;;12.25;6.13;;;;;;;;;;1031209;28;20456;-66
2023/12/30 00:16:59;;;;;;;11.60;6.63;;;;;;;;;;1031464;28;20065;-66
2023/12/30 00:17:29;;;;;;;12.65;6.10;;;;;;;;;;1031141;28;20618;-65
2023/12/30 00:18:00;;;;;;;12.85;6.60;;;;;;;;;;1031500;28;20440;-65
2023/12/30 00:18:30;;;;;;;15.27;6.28;;;;;;;;;;1031733;28;20088;-65
2023/12/30 00:19:00;;;;;;;12.25;6.32;;;;;;;;;;1031224;28;20218;-65
2023/12/30 00:19:34;;;;;;;13.07;5.93;;;;;;;;;;1032496;28;21776;-65
2023/12/30 00:20:05;;;;;;;10.30;5.97;;;;;;;;;;1031004;28;20608;-65
2023/12/30 00:20:36;;;;;;;11.73;5.28;;;;;;;;;;1032756;28;20065;-66
2023/12/30 00:21:06;;;;;;;14.82;6.40;;;;;;;;;;1032838;28;20061;-66
2023/12/30 00:21:37;;;;;;;13.40;5.93;;;;;;;;;;1032799;28;20085;-64
2023/12/30 00:22:08;;;;;;;11.73;6.03;;;;;;;;;;1032329;28;20058;-65
2023/12/30 00:22:38;;;;;;;10.50;5.53;;;;;;;;;;1032543;28;20068;-65
2023/12/30 00:23:09;;;;;;;10.20;5.57;;;;;;;;;;1032595;28;20049;-65
2023/12/30 00:23:42;;;;;;;11.18;5.57;;;;;;;;;;1033102;28;20076;-65
2023/12/30 00:24:12;;;;;;;13.68;5.95;;;;;;;;;;1032164;28;20638;-65
2023/12/30 00:24:43;;;;;;;10.40;5.82;;;;;;;;;;1031839;28;20181;-65
2023/12/30 00:25:13;;;;;;;12.82;6.35;;;;;;;;;;1033268;28;20046;-65
2023/12/30 00:25:44;;;;;;;12.05;5.70;;;;;;;;;;1032930;28;20073;-65
2023/12/30 00:26:25;;;;;;;12.60;6.55;;;;;;;;;;1032557;28;20577;-64
2023/12/30 00:26:56;;;;;;;12.63;5.68;;;;;;;;;;1031683;28;20128;-65
2023/12/30 00:27:27;;;;;;;10.93;6.28;;;;;;;;;;1033064;28;20038;-65
2023/12/30 00:27:57;;;;;;;10.23;5.90;;;;;;;;;;1031511;28;20123;-65
2023/12/30 00:28:28;;;;;;;11.55;5.60;;;;;;;;;;1031430;28;20045;-64
2023/12/30 00:28:58;;;;;;;12.50;6.07;;;;;;;;;;1032418;28;20084;-66
2023/12/30 00:29:29;;;;;;;11.15;6.18;;;;;;;;;;1032618;28;20141;-65
2023/12/30 00:30:00;;;;;;;14.82;6.18;;;;;;;;;;1030832;28;20050;-66
2023/12/30 00:30:30;;;;;;;14.15;5.70;;;;;;;;;;1033179;28;20049;-64
2023/12/30 00:31:01;;;;;;;12.98;6.40;;;;;;;;;;1032466;28;20104;-64
2023/12/30 00:31:33;;;;;;;10.98;5.82;;;;;;;;;;1032715;28;20108;-65
2023/12/30 00:32:04;;;;;;;13.02;6.00;;;;;;;;;;1032480;28;20074;-64
2023/12/30 00:32:34;;;;;;;11.20;6.00;;;;;;;;;;1032513;28;20086;-64
2023/12/30 00:33:05;;;;;;;10.32;5.72;;;;;;;;;;1032598;28;20049;-65
2023/12/30 00:33:35;;;;;;;12.55;5.60;;;;;;;;;;1031654;28;20414;-66
2023/12/30 00:34:06;;;;;;;10.75;5.43;;;;;;;;;;1030196;28;20066;-65
2023/12/30 00:34:36;;;;;;;10.50;5.60;;;;;;;;;;1031069;28;20109;-65
2023/12/30 00:35:07;;;;;;;11.13;5.43;;;;;;;;;;1032432;28;20079;-65
2023/12/30 00:35:38;;;;;;;12.15;5.53;;;;;;;;;;1032085;28;20049;-64
2023/12/30 00:36:08;;;;;;;12.00;5.43;;;;;;;;;;1032941;28;20080;-66
2023/12/30 00:36:45;;;;;;;12.15;6.40;;;;;;;;;;1031902;28;20058;-65
2023/12/30 00:37:19;;;;;;;10.50;5.47;;;;;;;;;;1033772;28;20058;-65
2023/12/30 00:37:52;;;;;;;10.05;5.28;;;;;;;;;;1030778;28;20058;-65
2023/12/30 00:38:23;;;;;;;10.70;5.70;;;;;;;;;;1032668;28;20078;-65
2023/12/30 00:38:54;;;;;;;9.25;5.45;;;;;;;;;;1032810;28;20055;-65
2023/12/30 00:39:25;;;;;;;10.18;5.68;;;;;;;;;;1033844;28;20041;-65
2023/12/30 00:39:55;;;;;;;11.00;5.78;;;;;;;;;;1031140;28;20596;-65
2023/12/30 00:40:25;;;;;;;10.30;5.38;;;;;;;;;;1033481;28;20061;-65
2023/12/30 00:40:56;;;;;;;9.65;5.60;;;;;;;;;;1030702;28;20060;-65
2023/12/30 00:41:27;;;;;;;9.27;5.43;;;;;;;;;;1031675;28;20544;-65
2023/12/30 00:41:58;;;;;;;10.38;6.18;;;;;;;;;;1032261;28;20058;-65
2023/12/30 00:42:29;;;;;;;13.20;6.25;;;;;;;;;;1032307;28;20050;-65
2023/12/30 00:42:59;;;;;;;9.80;5.47;;;;;;;;;;1032241;28;20050;-65
2023/12/30 00:43:30;;;;;;;11.02;5.72;;;;;;;;;;1032591;28;20525;-65
2023/12/30 00:44:00;;;;;;;11.48;5.68;;;;;;;;;;1032760;28;20054;-64
2023/12/30 00:44:31;;;;;;;11.75;5.63;;;;;;;;;;1031612;28;20058;-65
2023/12/30 00:45:01;;;;;;;10.38;5.97;;;;;;;;;;1031732;28;20132;-65
2023/12/30 00:45:31;;;;;;;10.30;5.63;;;;;;;;;;1031544;28;20058;-65
2023/12/30 00:46:02;;;;;;;12.40;5.60;;;;;;;;;;1031753;28;20071;-65
2023/12/30 00:46:33;;;;;;;10.65;5.53;;;;;;;;;;1031629;28;20798;-65
2023/12/30 00:47:03;;;;;;;8.77;5.15;;;;;;;;;;1031494;28;20053;-64
2023/12/30 00:47:34;;;;;;;13.10;6.15;;;;;;;;;;1033338;28;20497;-65
2023/12/30 00:48:04;;;;;;;15.20;6.00;;;;;;;;;;1032198;28;20060;-64
2023/12/30 00:48:35;;;;;;;11.43;5.75;;;;;;;;;;1032980;28;20121;-65
2023/12/30 00:49:08;;;;;;;9.73;5.57;;;;;;;;;;1032873;28;20386;-65
2023/12/30 00:49:39;;;;;;;11.32;6.22;;;;;;;;;;1031031;28;20139;-65
2023/12/30 00:50:09;;;;;;;9.55;5.07;;;;;;;;;;1032454;28;20061;-65
2023/12/30 00:50:40;;;;;;;10.77;5.35;;;;;;;;;;1032112;28;20045;-65
2023/12/30 00:51:10;;;;;;;10.45;5.30;;;;;;;;;;1033370;28;20891;-65
2023/12/30 00:51:41;;;;;;;12.00;5.88;;;;;;;;;;1031965;28;20057;-64
2023/12/30 00:52:11;;;;;;;9.35;5.18;;;;;;;;;;1032309;28;20054;-65
2023/12/30 00:52:42;;;;;;;10.32;5.45;;;;;;;;;;1031692;28;20060;-65
2023/12/30 00:53:12;;;;;;;10.75;5.07;;;;;;;;;;1031749;28;20054;-65
2023/12/30 00:53:43;;;;;;;10.25;5.53;;;;;;;;;;1031225;28;20053;-65
2023/12/30 00:54:14;;;;;;;11.10;5.72;;;;;;;;;;1030917;28;20080;-66
2023/12/30 00:54:44;;;;;;;12.55;6.15;;;;;;;;;;1032036;28;20045;-65
2023/12/30 00:55:15;;;;;;;9.40;5.50;;;;;;;;;;1030977;28;20387;-66
2023/12/30 00:55:46;;;;;;;11.32;5.55;;;;;;;;;;1031914;28;20037;-65
2023/12/30 00:56:16;;;;;;;10.13;5.70;;;;;;;;;;1033066;28;20455;-65
2023/12/30 00:56:47;;;;;;;10.45;5.60;;;;;;;;;;1031642;28;20069;-65
2023/12/30 00:57:17;;;;;;;10.32;5.10;;;;;;;;;;1031401;28;20558;-64
2023/12/30 00:57:48;;;;;;;9.00;5.22;;;;;;;;;;1031616;28;20065;-65
2023/12/30 00:58:27;;;;;;;9.56;5.27;;;;;;;;;;975214;28;10000446;-65
2023/12/30 00:58:58;;;;;;;13.43;5.85;;;;;;;;;;1031136;28;20453;-65
2023/12/30 00:59:28;;;;;;;9.68;5.40;;;;;;;;;;1031047;28;20494;-65
2023/12/30 00:59:59;;;;;;;10.15;5.75;;;;;;;;;;1032312;28;20088;-65
2023/12/30 01:00:29;;;;;;;10.13;5.38;;;;;;;;;;1032692;28;20057;-64
2023/12/30 01:01:00;;;;;;;10.48;5.53;;;;;;;;;;1031559;28;20073;-65
2023/12/30 01:01:30;;;;;;;10.45;6.00;;;;;;;;;;1031039;28;20046;-64
2023/12/30 01:02:01;;;;;;;9.52;5.05;;;;;;;;;;1032218;28;20050;-65
2023/12/30 01:02:31;;;;;;;10.27;5.38;;;;;;;;;;1032506;28;20050;-64
2023/12/30 01:03:02;;;;;;;11.23;5.65;;;;;;;;;;1032516;28;21737;-65
2023/12/30 01:03:33;;;;;;;10.57;5.85;;;;;;;;;;1032778;28;20061;-65
2023/12/30 01:04:03;;;;;;;14.13;5.60;;;;;;;;;;1032237;28;20513;-65
2023/12/30 01:04:34;;;;;;;9.55;5.35;;;;;;;;;;1032494;28;20042;-64
2023/12/30 01:05:05;;;;;;;11.35;5.47;;;;;;;;;;1032308;28;20528;-65
2023/12/30 01:05:35;;;;;;;10.57;5.53;;;;;;;;;;1032578;28;20054;-65
2023/12/30 01:06:06;;;;;;;11.43;5.65;;;;;;;;;;1033159;28;20050;-65
2023/12/30 01:06:37;;;;;;;8.55;4.80;;;;;;;;;;1031864;28;20621;-64
2023/12/30 01:07:07;;;;;;;10.50;4.97;;;;;;;;;;1031805;28;20495;-65
2023/12/30 01:07:38;;;;;;;13.38;5.53;;;;;;;;;;1032974;28;20136;-65
2023/12/30 01:08:08;;;;;;;9.93;5.63;;;;;;;;;;1033388;28;20120;-65
2023/12/30 01:08:39;;;;;;;8.55;5.22;;;;;;;;;;1031701;28;20050;-65
2023/12/30 01:09:09;;;;;;;14.60;5.50;;;;;;;;;;1033587;28;20065;-64
2023/12/30 01:09:40;;;;;;;11.73;5.55;;;;;;;;;;1032255;28;20040;-65
2023/12/30 01:10:10;;;;;;;10.15;5.82;;;;;;;;;;1033738;28;20132;-64
2023/12/30 01:10:41;;;;;;;11.65;5.70;;;;;;;;;;1032550;28;20498;-64
2023/12/30 01:11:12;;;;;;;8.88;6.05;;;;;;;;;;1032133;28;20634;-65
2023/12/30 01:11:42;;;;;;;9.68;4.88;;;;;;;;;;1032193;28;20080;-65
2023/12/30 01:12:13;;;;;;;10.82;5.50;;;;;;;;;;1033517;28;20069;-65
2023/12/30 01:12:44;;;;;;;10.15;5.43;;;;;;;;;;1031939;28;20050;-64
2023/12/30 01:13:15;;;;;;;11.73;5.32;;;;;;;;;;1033378;28;20054;-65
2023/12/30 01:13:45;;;;;;;9.20;5.00;;;;;;;;;;1031999;28;20603;-66
2023/12/30 01:14:16;;;;;;;8.55;4.90;;;;;;;;;;1033021;28;20151;-64
2023/12/30 01:14:46;;;;;;;12.43;5.95;;;;;;;;;;1031732;28;20042;-65
2023/12/30 01:15:17;;;;;;;10.93;5.30;;;;;;;;;;1031659;28;20073;-65
2023/12/30 01:15:47;;;;;;;10.88;5.65;;;;;;;;;;1032068;28;20053;-66
2023/12/30 01:16:18;;;;;;;10.05;5.90;;;;;;;;;;1031623;28;20123;-65
2023/12/30 01:16:48;;;;;;;12.52;6.03;;;;;;;;;;1031895;28;20054;-65
2023/12/30 01:17:19;;;;;;;11.23;5.88;;;;;;;;;;1032099;28;20086;-65
2023/12/30 01:17:49;;;;;;;10.73;4.93;;;;;;;;;;1032096;28;20050;-65
2023/12/30 01:18:20;;;;;;;9.73;5.60;;;;;;;;;;1033178;28;20617;-64
2023/12/30 01:18:50;;;;;;;11.55;5.40;;;;;;;;;;1031581;28;20064;-64
2023/12/30 01:19:21;;;;;;;11.98;5.32;;;;;;;;;;1031043;28;20057;-64
2023/12/30 01:19:51;;;;;;;11.50;4.95;;;;;;;;;;1029275;28;20051;-65
2023/12/30 01:20:22;;;;;;;10.77;5.38;;;;;;;;;;1032718;28;20046;-64
2023/12/30 01:20:53;;;;;;;9.48;5.07;;;;;;;;;;1032683;28;20054;-65
2023/12/30 01:21:23;;;;;;;8.32;5.00;;;;;;;;;;1032624;28;20041;-65
2023/12/30 01:21:54;;;;;;;10.63;5.05;;;;;;;;;;1030918;28;20065;-65
2023/12/30 01:22:24;;;;;;;8.55;5.55;;;;;;;;;;1031748;28;20065;-65
2023/12/30 01:22:55;;;;;;;10.25;5.45;;;;;;;;;;1030813;28;20050;-64
2023/12/30 01:23:26;;;;;;;10.35;5.50;;;;;;;;;;1031428;28;20458;-64
2023/12/30 01:23:57;;;;;;;10.93;4.70;;;;;;;;;;1032204;28;20049;-65
2023/12/30 01:24:28;;;;;;;11.55;5.35;;;;;;;;;;1031633;28;20064;-65
2023/12/30 01:24:58;;;;;;;11.35;5.32;;;;;;;;;;1031075;28;20115;-65
2023/12/30 01:25:29;;;;;;;9.57;4.85;;;;;;;;;;1032587;28;20042;-65
2023/12/30 01:25:59;;;;;;;11.35;5.57;;;;;;;;;;1033606;28;20041;-65
2023/12/30 01:26:30;;;;;;;11.77;5.50;;;;;;;;;;1033264;28;20061;-65
2023/12/30 01:27:00;;;;;;;12.05;5.40;;;;;;;;;;1034064;28;20064;-65
2023/12/30 01:27:30;;;;;;;10.30;5.28;;;;;;;;;;1032082;28;20061;-65
2023/12/30 01:28:01;;;;;;;11.23;5.32;;;;;;;;;;1032861;28;21350;-64
2023/12/30 01:28:33;;;;;;;8.48;5.05;;;;;;;;;;1033378;28;20687;-64
2023/12/30 01:29:04;;;;;;;9.82;5.18;;;;;;;;;;1034022;28;20050;-65
2023/12/30 01:29:35;;;;;;;14.13;5.20;;;;;;;;;;1032911;28;20387;-65
2023/12/30 01:30:06;;;;;;;10.18;5.03;;;;;;;;;;1033374;28;20463;-66
2023/12/30 01:30:37;;;;;;;8.75;5.15;;;;;;;;;;1031858;28;20874;-65
2023/12/30 01:31:07;;;;;;;11.80;5.40;;;;;;;;;;1033187;28;20054;-64
2023/12/30 01:31:38;;;;;;;12.48;5.03;;;;;;;;;;1033642;28;20054;-64
2023/12/30 01:32:08;;;;;;;11.40;5.47;;;;;;;;;;1036691;28;20061;-65
2023/12/30 01:32:39;;;;;;;10.15;4.93;;;;;;;;;;1037415;28;20049;-65
2023/12/30 01:33:10;;;;;;;11.05;5.60;;;;;;;;;;1030941;28;20571;-66
2023/12/30 01:33:41;;;;;;;7.32;4.90;;;;;;;;;;1034054;28;20150;-64
2023/12/30 01:34:11;;;;;;;9.30;4.82;;;;;;;;;;1031783;28;20050;-65
2023/12/30 01:34:42;;;;;;;10.38;5.13;;;;;;;;;;1034061;28;20057;-65
2023/12/30 01:35:14;;;;;;;8.75;5.00;;;;;;;;;;1033667;28;20069;-65
2023/12/30 01:35:45;;;;;;;9.93;5.45;;;;;;;;;;1033195;28;20057;-66
2023/12/30 01:36:15;;;;;;;10.98;5.90;;;;;;;;;;1032999;28;20046;-64
2023/12/30 01:36:46;;;;;;;11.82;5.53;;;;;;;;;;1031875;28;20088;-65
2023/12/30 01:37:16;;;;;;;12.25;5.53;;;;;;;;;;1033967;28;20050;-65
2023/12/30 01:37:47;;;;;;;9.07;5.43;;;;;;;;;;1032747;28;20078;-65
2023/12/30 01:38:17;;;;;;;12.50;5.93;;;;;;;;;;1033263;28;20046;-65
2023/12/30 01:38:48;;;;;;;9.35;4.93;;;;;;;;;;1032385;28;20058;-65
2023/12/30 01:39:19;;;;;;;9.38;4.55;;;;;;;;;;1032851;28;20038;-64
2023/12/30 01:39:49;;;;;;;12.73;4.90;;;;;;;;;;1032534;28;20057;-66
2023/12/30 01:40:20;;;;;;;11.05;5.15;;;;;;;;;;1031805;28;20486;-65
2023/12/30 01:40:50;;;;;;;11.30;5.72;;;;;;;;;;1032451;28;20046;-64
2023/12/30 01:41:21;;;;;;;8.80;5.03;;;;;;;;;;1031932;28;20050;-65
2023/12/30 01:41:51;;;;;;;10.90;5.18;;;;;;;;;;1032402;28;20054;-65
2023/12/30 01:42:22;;;;;;;12.80;5.97;;;;;;;;;;1033446;28;20049;-65
2023/12/30 01:42:53;;;;;;;9.02;5.25;;;;;;;;;;1032592;28;20058;-65
2023/12/30 01:43:28;;;;;;;10.48;5.30;;;;;;;;;;1032448;28;20050;-65
2023/12/30 01:43:59;;;;;;;10.77;5.15;;;;;;;;;;1032355;28;20497;-64
2023/12/30 01:44:29;;;;;;;9.85;4.95;;;;;;;;;;1032379;28;20074;-64
2023/12/30 01:45:00;;;;;;;9.23;4.57;;;;;;;;;;1031783;28;20053;-65
2023/12/30 01:45:30;;;;;;;10.70;5.80;;;;;;;;;;1032531;28;20054;-65
2023/12/30 01:46:04;;;;;;;11.48;5.13;;;;;;;;;;1032274;28;20100;-65
2023/12/30 01:46:34;;;;;;;10.32;5.70;;;;;;;;;;1030897;28;20058;-64
2023/12/30 01:47:05;;;;;;;8.52;5.28;;;;;;;;;;1032322;28;20042;-65
2023/12/30 01:47:36;;;;;;;11.35;5.28;;;;;;;;;;1032794;28;20050;-65
2023/12/30 01:48:07;;;;;;;10.10;5.18;;;;;;;;;;1031285;28;20042;-64
2023/12/30 01:48:38;;;;;;;9.95;5.50;;;;;;;;;;1033287;28;20100;-65
2023/12/30 01:49:08;;;;;;;10.57;5.13;;;;;;;;;;1031084;28;21069;-65
2023/12/30 01:49:39;;;;;;;10.27;5.60;;;;;;;;;;1033091;28;20421;-65
2023/12/30 01:50:10;;;;;;;9.13;4.82;;;;;;;;;;1033340;28;20103;-65
2023/12/30 01:50:41;;;;;;;9.63;5.35;;;;;;;;;;1032375;28;20070;-65
2023/12/30 01:51:12;;;;;;;9.32;5.53;;;;;;;;;;1033691;28;20054;-65
2023/12/30 01:51:42;;;;;;;9.25;5.57;;;;;;;;;;1032724;28;20148;-65
2023/12/30 01:52:13;;;;;;;9.60;5.50;;;;;;;;;;1033212;28;20520;-65
2023/12/30 01:52:46;;;;;;;10.10;5.85;;;;;;;;;;1031759;28;20054;-65
2023/12/30 01:53:17;;;;;;;10.60;5.72;;;;;;;;;;1032686;28;20064;-65
2023/12/30 01:53:49;;;;;;;10.15;4.97;;;;;;;;;;1031493;28;20064;-65
2023/12/30 01:54:24;;;;;;;10.35;4.90;;;;;;;;;;1032406;28;20100;-65
2023/12/30 01:54:55;;;;;;;10.82;5.05;;;;;;;;;;1031014;28;20469;-64
2023/12/30 01:55:25;;;;;;;10.45;5.15;;;;;;;;;;1034202;28;22175;-65
2023/12/30 01:55:57;;;;;;;8.93;4.72;;;;;;;;;;1032503;28;20053;-64
2023/12/30 01:56:28;;;;;;;8.57;4.55;;;;;;;;;;1032292;28;20425;-66
2023/12/30 01:56:59;;;;;;;8.48;5.32;;;;;;;;;;1032969;28;20409;-65
2023/12/30 01:57:30;;;;;;;18.58;7.28;;;;;;;;;;1032210;28;20068;-65
2023/12/30 01:58:00;;;;;;;8.95;5.32;;;;;;;;;;1033058;28;20065;-65
2023/12/30 01:58:31;;;;;;;9.32;5.22;;;;;;;;;;1032849;28;20707;-65
2023/12/30 01:59:02;;;;;;;11.15;5.35;;;;;;;;;;1033962;28;20058;-64
2023/12/30 01:59:35;;;;;;;9.52;5.30;;;;;;;;;;1031664;28;20061;-64
2023/12/30 02:00:06;;;;;;;11.27;5.57;;;;;;;;;;1032734;28;20127;-64
2023/12/30 02:00:38;;;;;;;13.32;5.43;;;;;;;;;;1033051;28;20501;-65
2023/12/30 02:01:10;;;;;;;8.18;4.93;;;;;;;;;;1031018;28;20054;-65
2023/12/30 02:01:40;;;;;;;8.52;5.47;;;;;;;;;;1032733;28;20952;-65
2023/12/30 02:02:11;;;;;;;9.88;4.70;;;;;;;;;;1031609;28;20760;-65
2023/12/30 02:02:42;;;;;;;11.82;5.30;;;;;;;;;;1033894;28;20049;-65
2023/12/30 02:03:13;;;;;;;11.05;5.22;;;;;;;;;;1033202;28;20054;-64
2023/12/30 02:03:44;;;;;;;11.27;5.18;;;;;;;;;;1032615;28;20042;-64
2023/12/30 02:04:14;;;;;;;7.72;5.05;;;;;;;;;;1032988;28;20157;-65
2023/12/30 02:04:45;;;;;;;8.65;4.78;;;;;;;;;;1031927;28;20069;-64
2023/12/30 02:05:16;;;;;;;9.77;4.90;;;;;;;;;;1033012;28;20061;-65
2023/12/30 02:05:47;;;;;;;8.52;4.80;;;;;;;;;;1032678;28;20038;-65
2023/12/30 02:06:17;;;;;;;8.00;4.63;;;;;;;;;;1034003;28;20483;-65
2023/12/30 02:06:49;;;;;;;11.75;5.13;;;;;;;;;;1031474;28;20514;-65
2023/12/30 02:07:19;;;;;;;9.20;5.22;;;;;;;;;;1033406;28;20049;-65
2023/12/30 02:07:50;;;;;;;9.95;4.72;;;;;;;;;;1031373;28;20053;-65
2023/12/30 02:08:21;;;;;;;9.15;4.28;;;;;;;;;;1032270;28;20061;-65
2023/12/30 02:08:52;;;;;;;11.75;4.90;;;;;;;;;;1033043;28;20057;-64
2023/12/30 02:09:23;;;;;;;10.18;5.10;;;;;;;;;;1034184;28;20070;-65
2023/12/30 02:09:53;;;;;;;8.85;5.18;;;;;;;;;;1031111;28;20049;-66
2023/12/30 02:10:24;;;;;;;9.10;5.15;;;;;;;;;;1032166;28;20042;-65
2023/12/30 02:10:54;;;;;;;11.73;5.75;;;;;;;;;;1030927;28;20066;-66
2023/12/30 02:11:25;;;;;;;9.85;5.00;;;;;;;;;;1033694;28;20064;-65
2023/12/30 02:11:56;;;;;;;9.32;4.78;;;;;;;;;;1031802;28;20480;-65
2023/12/30 02:12:26;;;;;;;10.40;5.22;;;;;;;;;;1032435;28;20153;-64
2023/12/30 02:12:57;;;;;;;10.27;5.53;;;;;;;;;;1031608;28;20514;-65
2023/12/30 02:13:27;;;;;;;9.32;5.03;;;;;;;;;;1031187;28;20050;-65
2023/12/30 02:13:58;;;;;;;9.30;5.10;;;;;;;;;;1032674;28;20068;-64
2023/12/30 02:14:29;;;;;;;10.77;5.50;;;;;;;;;;1031386;28;20103;-64
2023/12/30 02:15:21;;;;;;;9.38;4.97;;;;;;;;;;1031989;28;20060;-64
2023/12/30 02:15:51;;;;;;;9.18;5.03;;;;;;;;;;1031095;28;22254;-66
2023/12/30 02:16:22;;;;;;;11.27;5.55;;;;;;;;;;1034295;28;20050;-65
2023/12/30 02:16:53;;;;;;;8.70;5.05;;;;;;;;;;1031426;28;20081;-64
2023/12/30 02:17:23;;;;;;;9.82;5.35;;;;;;;;;;1032696;28;20050;-65
2023/12/30 02:17:56;;;;;;;11.32;4.88;;;;;;;;;;1032236;28;20077;-65
2023/12/30 02:18:26;;;;;;;10.20;5.18;;;;;;;;;;1033978;28;20053;-65
2023/12/30 02:18:57;;;;;;;8.70;5.00;;;;;;;;;;1032436;28;20053;-65
2023/12/30 02:19:27;;;;;;;8.57;4.32;;;;;;;;;;1031815;28;20046;-65
2023/12/30 02:19:58;;;;;;;9.77;4.85;;;;;;;;;;1031184;28;20109;-66
2023/12/30 02:20:30;;;;;;;10.02;5.25;;;;;;;;;;1033181;28;20518;-65
2023/12/30 02:21:00;;;;;;;7.72;4.53;;;;;;;;;;1033839;28;20088;-65
2023/12/30 02:21:31;;;;;;;9.00;5.05;;;;;;;;;;1031413;28;20054;-65
2023/12/30 02:22:01;;;;;;;7.38;4.65;;;;;;;;;;1032531;28;20050;-64
2023/12/30 02:22:32;;;;;;;7.70;4.18;;;;;;;;;;1032273;28;20053;-64
2023/12/30 02:23:02;;;;;;;7.43;4.60;;;;;;;;;;1034283;28;20553;-65
2023/12/30 02:23:33;;;;;;;9.15;4.82;;;;;;;;;;1032006;28;20061;-64
2023/12/30 02:24:04;;;;;;;8.98;5.10;;;;;;;;;;1032915;28;20089;-66
2023/12/30 02:24:34;;;;;;;6.95;4.00;;;;;;;;;;1032011;28;20065;-65
2023/12/30 02:25:05;;;;;;;9.98;4.78;;;;;;;;;;1033272;28;20731;-65
2023/12/30 02:25:36;;;;;;;9.90;5.07;;;;;;;;;;1031701;28;20053;-65
2023/12/30 02:26:09;;;;;;;8.93;4.63;;;;;;;;;;1032870;28;20145;-65
2023/12/30 02:26:40;;;;;;;6.55;4.30;;;;;;;;;;1032929;28;20041;-65
2023/12/30 02:27:10;;;;;;;7.68;4.55;;;;;;;;;;1033223;28;20042;-65
2023/12/30 02:27:43;;;;;;;8.27;4.40;;;;;;;;;;1032786;28;20502;-64
2023/12/30 02:28:13;;;;;;;8.20;4.72;;;;;;;;;;1031324;28;20054;-65
2023/12/30 02:28:44;;;;;;;10.32;5.25;;;;;;;;;;1032672;28;20057;-64
2023/12/30 02:29:14;;;;;;;7.85;4.22;;;;;;;;;;1032903;28;20053;-65
2023/12/30 02:29:45;;;;;;;9.57;4.30;;;;;;;;;;1033367;28;20046;-65
2023/12/30 02:30:15;;;;;;;8.57;4.65;;;;;;;;;;1030817;28;20054;-64
2023/12/30 02:30:46;;;;;;;9.85;4.40;;;;;;;;;;1033746;28;20076;-65
2023/12/30 02:31:16;;;;;;;9.82;4.68;;;;;;;;;;1033294;28;20453;-64
2023/12/30 02:31:47;;;;;;;8.98;4.82;;;;;;;;;;1033429;28;20049;-65
2023/12/30 02:32:17;;;;;;;9.98;4.70;;;;;;;;;;1032115;28;20085;-66
2023/12/30 02:32:48;;;;;;;9.07;5.00;;;;;;;;;;1031914;28;20060;-65
2023/12/30 02:33:18;;;;;;;9.02;4.68;;;;;;;;;;1033833;28;20054;-65
2023/12/30 02:33:49;;;;;;;9.32;4.65;;;;;;;;;;1030689;28;20085;-65
2023/12/30 02:34:19;;;;;;;7.43;4.07;;;;;;;;;;1032773;28;20466;-65
2023/12/30 02:34:50;;;;;;;9.02;4.70;;;;;;;;;;1031639;28;20053;-65
2023/12/30 02:35:23;;;;;;;9.00;4.80;;;;;;;;;;1033909;28;20057;-64
2023/12/30 02:35:53;;;;;;;9.52;4.72;;;;;;;;;;1032427;28;20470;-65
2023/12/30 02:36:24;;;;;;;8.52;4.63;;;;;;;;;;1032283;28;20403;-65
2023/12/30 02:36:54;;;;;;;9.57;4.85;;;;;;;;;;1033851;28;20052;-65
2023/12/30 02:37:24;;;;;;;8.82;4.68;;;;;;;;;;1038090;28;20053;-65
2023/12/30 02:37:55;;;;;;;7.55;4.82;;;;;;;;;;1037434;28;20056;-64
2023/12/30 02:38:25;;;;;;;8.65;4.10;;;;;;;;;;1036631;28;20060;-65
2023/12/30 02:38:56;;;;;;;9.35;4.68;;;;;;;;;;1035680;28;20057;-64
2023/12/30 02:39:27;;;;;;;10.05;4.30;;;;;;;;;;1037549;28;20464;-64
2023/12/30 02:39:57;;;;;;;8.32;4.32;;;;;;;;;;1036074;28;20136;-64
2023/12/30 02:40:28;;;;;;;7.93;4.75;;;;;;;;;;1036274;28;20086;-65
2023/12/30 02:40:58;;;;;;;8.98;4.35;;;;;;;;;;1036757;28;20123;-66
2023/12/30 02:41:28;;;;;;;8.95;4.60;;;;;;;;;;1036368;28;20048;-64
2023/12/30 02:41:59;;;;;;;9.80;4.65;;;;;;;;;;1037790;28;20148;-65
2023/12/30 02:42:30;;;;;;;8.18;4.47;;;;;;;;;;1035477;28;20053;-65
2023/12/30 02:43:01;;;;;;;8.85;4.55;;;;;;;;;;1037068;28;20080;-65
2023/12/30 02:43:35;;;;;;;9.30;4.70;;;;;;;;;;1036610;28;20050;-65
2023/12/30 02:44:06;;;;;;;7.22;3.92;;;;;;;;;;1035866;28;20050;-64
2023/12/30 02:44:36;;;;;;;6.90;3.70;;;;;;;;;;1037272;28;20138;-64
2023/12/30 02:45:08;;;;;;;6.97;4.32;;;;;;;;;;1035610;28;20544;-65
2023/12/30 02:45:38;;;;;;;8.15;4.30;;;;;;;;;;1036772;28;20053;-64
2023/12/30 02:46:09;;;;;;;8.23;4.13;;;;;;;;;;1035751;28;20108;-65
2023/12/30 02:46:39;;;;;;;7.30;3.60;;;;;;;;;;1035546;28;20144;-65
2023/12/30 02:47:10;;;;;;;6.90;3.88;;;;;;;;;;1036577;28;20046;-65
2023/12/30 02:47:40;;;;;;;9.38;4.40;;;;;;;;;;1038019;28;20104;-66
2023/12/30 02:48:11;;;;;;;8.65;4.22;;;;;;;;;;1036438;28;20049;-65
2023/12/30 02:48:41;;;;;;;8.98;4.20;;;;;;;;;;1036084;28;20726;-65
2023/12/30 02:49:12;;;;;;;7.88;4.35;;;;;;;;;;1037627;28;20068;-65
2023/12/30 02:49:44;;;;;;;9.00;4.20;;;;;;;;;;1036351;28;20791;-64
2023/12/30 02:50:14;;;;;;;8.02;3.92;;;;;;;;;;1037325;28;20454;-65
2023/12/30 02:50:45;;;;;;;9.18;4.57;;;;;;;;;;1035695;28;20490;-65
2023/12/30 02:51:16;;;;;;;8.68;4.15;;;;;;;;;;1037246;28;20053;-65
2023/12/30 02:51:46;;;;;;;7.40;4.20;;;;;;;;;;1035843;28;20054;-65
2023/12/30 02:52:16;;;;;;;8.73;4.03;;;;;;;;;;1037339;28;20068;-65
2023/12/30 02:52:47;;;;;;;6.30;3.88;;;;;;;;;;1036158;28;20126;-65
2023/12/30 02:53:18;;;;;;;7.10;3.80;;;;;;;;;;1035985;28;20112;-66
2023/12/30 02:53:48;;;;;;;7.47;4.10;;;;;;;;;;1034193;28;20076;-66
2023/12/30 02:54:19;;;;;;;6.97;4.32;;;;;;;;;;1037244;28;20041;-65
2023/12/30 02:54:49;;;;;;;5.35;3.72;;;;;;;;;;1035893;28;20072;-65
2023/12/30 02:55:20;;;;;;;8.00;4.15;;;;;;;;;;1036596;28;20077;-65
2023/12/30 02:55:50;;;;;;;7.70;4.13;;;;;;;;;;1035570;28;20111;-65
2023/12/30 02:56:27;;;;;;;6.95;3.70;;;;;;;;;;1035448;28;20096;-65
2023/12/30 02:56:57;;;;;;;6.97;4.07;;;;;;;;;;1035500;28;20390;-66
2023/12/30 02:57:28;;;;;;;8.27;4.07;;;;;;;;;;1037224;28;20558;-66
2023/12/30 02:57:59;;;;;;;7.25;3.83;;;;;;;;;;1036477;28;20041;-64
2023/12/30 02:58:29;;;;;;;7.22;4.25;;;;;;;;;;1035048;28;20100;-65
2023/12/30 02:59:01;;;;;;;6.28;3.80;;;;;;;;;;1036624;28;20057;-65
2023/12/30 02:59:32;;;;;;;6.20;3.63;;;;;;;;;;1035412;28;20497;-65
2023/12/30 03:00:02;;;;;;;7.57;3.78;;;;;;;;;;1037203;28;20050;-65
2023/12/30 03:00:33;;;;;;;7.20;3.80;;;;;;;;;;1036042;28;20053;-65
2023/12/30 03:01:03;;;;;;;7.15;4.15;;;;;;;;;;1036869;28;20557;-65
2023/12/30 03:01:34;;;;;;;8.52;4.65;;;;;;;;;;1036508;28;20045;-65
2023/12/30 03:02:05;;;;;;;8.90;4.20;;;;;;;;;;1036655;28;20060;-64
2023/12/30 03:02:36;;;;;;;6.15;3.53;;;;;;;;;;1038207;28;20504;-65
2023/12/30 03:03:06;;;;;;;6.72;4.13;;;;;;;;;;1035337;28;20095;-65
2023/12/30 03:03:37;;;;;;;7.18;3.85;;;;;;;;;;1036588;28;20119;-64
2023/12/30 03:04:07;;;;;;;6.85;3.92;;;;;;;;;;1037362;28;20409;-65